createdAt,value
2019-03-18T00:02:19.768Z,0.66
2019-03-18T00:04:52.600Z,0.69
2019-03-18T00:07:23.919Z,0.72
2019-03-18T00:09:55.151Z,0.73
2019-03-18T00:12:26.422Z,0.73
2019-03-18T00:15:01.499Z,0.72
2019-03-18T00:17:30.669Z,0.76
2019-03-18T00:20:01.949Z,0.74
2019-03-18T00:22:33.151Z,0.71
2019-03-18T00:25:06.257Z,0.67
2019-03-18T00:27:37.565Z,0.58
2019-03-18T00:30:21.562Z,0.50
2019-03-18T00:32:53.528Z,0.41
2019-03-18T00:35:24.776Z,0.30
2019-03-18T00:37:55.987Z,0.30
2019-03-18T00:40:27.237Z,0.35
2019-03-18T00:42:58.527Z,0.40
2019-03-18T00:45:29.726Z,0.47
2019-03-18T00:48:01.013Z,0.50
2019-03-18T00:50:32.315Z,0.52
2019-03-18T00:53:03.627Z,0.54
2019-03-18T00:55:34.929Z,0.57
2019-03-18T00:58:06.150Z,0.58
2019-03-18T01:00:37.430Z,0.61
2019-03-18T01:03:08.683Z,0.63
2019-03-18T01:05:40.015Z,0.55
2019-03-18T01:08:12.965Z,0.41
2019-03-18T01:10:44.224Z,0.21
2019-03-18T01:13:15.405Z,0.09
2019-03-18T01:15:46.676Z,0.11
2019-03-18T01:18:17.845Z,0.07
2019-03-18T01:20:49.172Z,-0.01
2019-03-18T01:23:20.366Z,-0.15
2019-03-18T01:25:52.834Z,-0.25
2019-03-18T01:28:24.128Z,-0.20
2019-03-18T01:30:55.471Z,-0.29
2019-03-18T01:33:27.469Z,-0.37
2019-03-18T01:35:58.622Z,-0.31
2019-03-18T01:38:29.933Z,-0.34
2019-03-18T01:41:01.159Z,-0.35
2019-03-18T01:43:32.414Z,-0.37
2019-03-18T01:46:03.811Z,-0.41
2019-03-18T01:48:35.107Z,-0.43
2019-03-18T01:51:06.513Z,-0.48
2019-03-18T01:53:37.764Z,-0.48
2019-03-18T01:56:08.998Z,-0.22
2019-03-18T01:58:40.346Z,-0.26
2019-03-18T02:01:11.566Z,-0.36
2019-03-18T02:03:42.833Z,-0.47
2019-03-18T02:06:14.081Z,-0.49
2019-03-18T02:08:45.349Z,-0.54
2019-03-18T02:11:16.653Z,-0.62
2019-03-18T02:13:47.995Z,-0.71
2019-03-18T02:16:19.391Z,-0.67
2019-03-18T02:18:50.641Z,-0.71
2019-03-18T02:21:21.947Z,-0.74
2019-03-18T02:23:53.212Z,-0.75
2019-03-18T02:26:24.500Z,-0.48
2019-03-18T02:28:55.795Z,-0.55
2019-03-18T02:31:27.157Z,-0.49
2019-03-18T02:33:58.530Z,-0.38
2019-03-18T02:36:29.861Z,-0.32
2019-03-18T02:39:02.307Z,-0.23
2019-03-18T02:41:34.678Z,-0.12
2019-03-18T02:44:05.982Z,-0.23
2019-03-18T02:46:37.255Z,-0.27
2019-03-18T02:49:09.744Z,-0.27
2019-03-18T02:51:41.039Z,-0.23
2019-03-18T02:54:12.288Z,-0.05
2019-03-18T02:56:43.652Z,0.09
2019-03-18T02:59:14.933Z,0.01
2019-03-18T03:01:46.182Z,-0.06
2019-03-18T03:04:17.459Z,-0.15
2019-03-18T03:06:48.681Z,-0.23
2019-03-18T03:09:20.008Z,-0.35
2019-03-18T03:11:51.239Z,-0.51
2019-03-18T03:14:22.447Z,-0.58
2019-03-18T03:16:53.731Z,-0.55
2019-03-18T03:19:24.950Z,-0.61
2019-03-18T03:21:56.256Z,-0.51
2019-03-18T03:24:27.464Z,-0.51
2019-03-18T03:26:58.909Z,-0.53
2019-03-18T03:29:32.099Z,-0.55
2019-03-18T03:32:03.284Z,-0.58
2019-03-18T03:34:34.492Z,-0.52
2019-03-18T03:37:05.871Z,-0.52
2019-03-18T03:39:37.288Z,-0.64
2019-03-18T03:42:08.597Z,-0.71
2019-03-18T03:44:39.898Z,-0.81
2019-03-18T03:47:11.443Z,-0.89
2019-03-18T03:49:42.992Z,-0.93
2019-03-18T03:52:14.308Z,-0.93
2019-03-18T03:54:45.600Z,-0.88
2019-03-18T03:57:16.890Z,-0.89
2019-03-18T03:59:48.241Z,-0.83
2019-03-18T04:02:19.526Z,-0.81
2019-03-18T04:04:50.800Z,-0.83
2019-03-18T04:07:22.096Z,-0.83
2019-03-18T04:09:53.431Z,-0.74
2019-03-18T04:12:24.637Z,-0.72
2019-03-18T04:14:55.849Z,-0.67
2019-03-18T04:17:27.186Z,-0.61
2019-03-18T04:19:58.369Z,-0.58
2019-03-18T04:22:29.590Z,-0.49
2019-03-18T04:25:00.869Z,-0.43
2019-03-18T04:27:32.213Z,-0.29
2019-03-18T04:30:06.326Z,-0.19
2019-03-18T04:32:37.588Z,-0.15
2019-03-18T04:35:08.803Z,-0.07
2019-03-18T04:37:40.272Z,0.03
2019-03-18T04:40:12.438Z,0.13
2019-03-18T04:42:43.714Z,0.23
2019-03-18T04:45:14.874Z,0.33
2019-03-18T04:47:46.319Z,0.43
2019-03-18T04:50:17.538Z,0.50
2019-03-18T04:52:49.143Z,0.58
2019-03-18T04:55:20.410Z,0.67
2019-03-18T04:57:51.760Z,0.79
2019-03-18T05:00:22.888Z,0.92
2019-03-18T05:02:54.167Z,1.04
2019-03-18T05:05:26.137Z,1.12
2019-03-18T05:07:57.420Z,1.22
2019-03-18T05:10:28.771Z,1.31
2019-03-18T05:12:59.984Z,1.40
2019-03-18T05:15:31.239Z,1.48
2019-03-18T05:18:02.522Z,1.55
2019-03-18T05:20:33.806Z,1.63
2019-03-18T05:23:05.138Z,1.70
2019-03-18T05:25:36.378Z,1.76
2019-03-18T05:28:07.791Z,1.84
2019-03-18T05:30:39.132Z,1.92
2019-03-18T05:33:10.580Z,1.97
2019-03-18T05:35:41.798Z,2.02
2019-03-18T05:38:13.150Z,2.11
2019-03-18T05:40:44.332Z,2.24
2019-03-18T05:43:15.686Z,2.35
2019-03-18T05:45:46.906Z,2.41
2019-03-18T05:48:19.422Z,2.49
2019-03-18T05:50:50.751Z,2.58
2019-03-18T05:53:22.000Z,2.69
2019-03-18T05:55:53.447Z,2.75
2019-03-18T05:58:24.919Z,2.82
2019-03-18T06:00:56.030Z,2.86
2019-03-18T06:03:27.281Z,2.91
2019-03-18T06:05:58.496Z,2.99
2019-03-18T06:08:29.722Z,3.05
2019-03-18T06:11:01.463Z,3.12
2019-03-18T06:13:32.821Z,3.17
2019-03-18T06:16:04.156Z,3.22
2019-03-18T06:18:35.288Z,3.32
2019-03-18T06:21:06.726Z,3.46
2019-03-18T06:23:37.923Z,3.58
2019-03-18T06:26:10.422Z,3.66
2019-03-18T06:28:43.263Z,3.73
2019-03-18T06:31:14.464Z,3.84
2019-03-18T06:33:45.733Z,3.94
2019-03-18T06:36:17.099Z,4.04
2019-03-18T06:38:48.420Z,4.25
2019-03-18T06:41:19.564Z,4.41
2019-03-18T06:43:52.597Z,4.59
2019-03-18T06:46:23.881Z,4.73
2019-03-18T06:48:55.124Z,4.92
2019-03-18T06:51:27.759Z,5.04
2019-03-18T06:54:01.975Z,5.13
2019-03-18T06:56:33.396Z,5.20
2019-03-18T06:59:04.692Z,5.38
2019-03-18T07:01:35.871Z,5.52
2019-03-18T07:04:07.015Z,5.64
2019-03-18T07:06:41.428Z,5.74
2019-03-18T07:09:12.618Z,5.83
2019-03-18T07:11:44.576Z,5.98
2019-03-18T07:14:15.784Z,6.18
2019-03-18T07:16:49.780Z,6.33
2019-03-18T07:19:22.123Z,6.56
2019-03-18T07:21:53.481Z,6.80
2019-03-18T07:24:24.764Z,7.08
2019-03-18T07:26:57.409Z,7.32
2019-03-18T07:29:28.750Z,7.56
2019-03-18T07:32:03.023Z,7.57
2019-03-18T07:34:34.506Z,7.77
2019-03-18T07:37:05.751Z,7.84
2019-03-18T07:39:36.984Z,7.91
2019-03-18T07:42:08.209Z,7.99
2019-03-18T07:44:39.408Z,8.13
2019-03-18T07:47:10.796Z,8.31
2019-03-18T07:49:42.148Z,8.50
2019-03-18T07:52:13.474Z,8.82
2019-03-18T07:54:44.577Z,8.98
2019-03-18T07:57:19.782Z,9.01
2019-03-18T07:59:51.071Z,9.19
2019-03-18T08:02:22.348Z,9.40
2019-03-18T08:04:53.596Z,9.53
2019-03-18T08:07:24.731Z,9.71
2019-03-18T08:09:55.985Z,9.92
2019-03-18T08:12:28.481Z,10.03
2019-03-18T08:14:59.808Z,10.23
2019-03-18T08:17:31.151Z,10.51
2019-03-18T08:20:03.553Z,10.78
2019-03-18T08:22:34.986Z,11.26
2019-03-18T08:25:07.916Z,11.76
2019-03-18T08:27:40.898Z,12.47
2019-03-18T08:30:17.162Z,13.38
2019-03-18T08:32:48.391Z,13.86
2019-03-18T08:35:19.591Z,14.36
2019-03-18T08:37:50.976Z,14.88
2019-03-18T08:40:22.335Z,15.34
2019-03-18T08:42:53.714Z,16.12
2019-03-18T08:45:25.046Z,16.75
2019-03-18T08:47:56.778Z,16.76
2019-03-18T08:50:28.494Z,16.90
2019-03-18T08:52:59.869Z,17.24
2019-03-18T08:55:32.506Z,17.34
2019-03-18T08:58:03.785Z,17.96
2019-03-18T09:00:34.910Z,18.56
2019-03-18T09:03:06.236Z,18.43
2019-03-18T09:05:37.732Z,18.53
2019-03-18T09:08:08.930Z,19.27
2019-03-18T09:10:40.196Z,18.72
2019-03-18T09:13:11.566Z,18.23
2019-03-18T09:15:44.301Z,18.42
2019-03-18T09:18:15.514Z,18.92
2019-03-18T09:20:46.747Z,19.82
2019-03-18T09:23:17.992Z,19.21
2019-03-18T09:25:49.225Z,19.46
2019-03-18T09:28:22.349Z,19.94
2019-03-18T09:30:53.772Z,20.68
2019-03-18T09:33:25.092Z,20.58
2019-03-18T09:35:57.553Z,20.40
2019-03-18T09:38:28.819Z,20.59
2019-03-18T09:40:59.960Z,20.17
2019-03-18T09:43:31.626Z,19.93
2019-03-18T09:46:02.857Z,19.99
2019-03-18T09:48:34.147Z,20.53
2019-03-18T09:51:05.564Z,20.52
2019-03-18T09:53:37.773Z,21.16
2019-03-18T09:56:09.190Z,21.07
2019-03-18T09:58:40.442Z,21.51
2019-03-18T10:01:11.750Z,22.76
2019-03-18T10:03:42.862Z,22.93
2019-03-18T10:06:14.271Z,22.82
2019-03-18T10:08:45.552Z,22.66
2019-03-18T10:11:18.091Z,21.91
2019-03-18T10:13:49.271Z,21.88
2019-03-18T10:16:20.763Z,21.93
2019-03-18T10:18:51.954Z,21.39
2019-03-18T10:21:23.169Z,21.27
2019-03-18T10:23:54.454Z,21.95
2019-03-18T10:26:25.581Z,22.05
2019-03-18T10:28:56.656Z,21.63
2019-03-18T10:31:27.979Z,21.35
2019-03-18T10:33:59.161Z,21.43
2019-03-18T10:36:30.390Z,21.86
2019-03-18T10:39:01.581Z,22.02
2019-03-18T10:41:34.353Z,21.68
2019-03-18T10:44:05.583Z,22.34
2019-03-18T10:46:36.669Z,22.58
2019-03-18T10:49:07.763Z,22.63
2019-03-18T10:51:38.971Z,22.26
2019-03-18T10:54:11.538Z,22.26
2019-03-18T10:56:42.572Z,22.56
2019-03-18T10:59:13.840Z,22.79
2019-03-18T11:01:45.038Z,23.48
2019-03-18T11:04:16.554Z,23.65
2019-03-18T11:06:47.878Z,23.66
2019-03-18T11:09:19.156Z,24.19
2019-03-18T11:11:50.546Z,24.54
2019-03-18T11:14:21.736Z,24.21
2019-03-18T11:16:53.022Z,23.90
2019-03-18T11:19:24.243Z,23.66
2019-03-18T11:21:55.589Z,23.74
2019-03-18T11:24:27.007Z,23.35
2019-03-18T11:26:59.000Z,23.70
2019-03-18T11:29:30.341Z,23.63
2019-03-18T11:32:01.493Z,23.77
2019-03-18T11:34:33.253Z,23.45
2019-03-18T11:37:04.462Z,23.30
2019-03-18T11:39:35.701Z,23.59
2019-03-18T11:42:06.830Z,24.19
2019-03-18T11:44:38.128Z,24.45
2019-03-18T11:47:09.421Z,24.05
2019-03-18T11:49:40.645Z,23.81
2019-03-18T11:52:11.803Z,23.87
2019-03-18T11:54:43.054Z,23.81
2019-03-18T11:57:14.373Z,24.32
2019-03-18T11:59:46.786Z,24.54
2019-03-18T12:02:27.271Z,24.37
2019-03-18T12:04:51.423Z,23.31
2019-03-18T12:07:23.017Z,23.34
2019-03-18T12:09:54.457Z,23.77
2019-03-18T12:12:25.657Z,24.27
2019-03-18T12:14:56.912Z,24.02
2019-03-18T12:17:30.489Z,23.89
2019-03-18T12:20:01.721Z,23.87
2019-03-18T12:22:35.525Z,24.08
2019-03-18T12:25:08.530Z,23.90
2019-03-18T12:27:39.686Z,23.70
2019-03-18T12:30:21.759Z,23.54
2019-03-18T12:32:53.383Z,23.12
2019-03-18T12:35:24.661Z,23.36
2019-03-18T12:37:55.981Z,23.37
2019-03-18T12:40:27.293Z,23.60
2019-03-18T12:42:58.682Z,23.76
2019-03-18T12:45:29.865Z,23.68
2019-03-18T12:48:01.376Z,23.49
2019-03-18T12:50:49.040Z,23.14
2019-03-18T12:53:05.522Z,23.21
2019-03-18T12:55:37.362Z,23.79
2019-03-18T12:58:08.569Z,24.06
2019-03-18T13:00:41.038Z,24.01
2019-03-18T13:03:13.399Z,24.07
2019-03-18T13:05:44.489Z,23.84
2019-03-18T13:08:15.783Z,23.64
2019-03-18T13:10:48.114Z,23.19
2019-03-18T13:13:19.270Z,23.08
2019-03-18T13:15:51.656Z,23.24
2019-03-18T13:18:22.722Z,23.14
2019-03-18T13:21:07.076Z,23.19
2019-03-18T13:23:27.435Z,23.39
2019-03-18T13:25:58.514Z,23.65
2019-03-18T13:28:29.640Z,23.49
2019-03-18T13:31:00.839Z,23.11
2019-03-18T13:33:32.062Z,23.28
2019-03-18T13:36:03.206Z,23.25
2019-03-18T13:38:34.399Z,22.70
2019-03-18T13:41:05.498Z,22.42
2019-03-18T13:43:37.152Z,22.60
2019-03-18T13:46:08.251Z,22.89
2019-03-18T13:48:39.590Z,22.71
2019-03-18T13:51:20.351Z,22.57
2019-03-18T13:53:43.778Z,22.41
2019-03-18T13:56:15.060Z,22.21
2019-03-18T13:58:47.511Z,21.96
2019-03-18T14:01:20.245Z,21.61
2019-03-18T14:03:51.441Z,21.88
2019-03-18T14:06:22.811Z,22.07
2019-03-18T14:08:54.247Z,21.80
2019-03-18T14:11:27.878Z,21.83
2019-03-18T14:13:59.146Z,21.70
2019-03-18T14:16:31.464Z,21.32
2019-03-18T14:19:02.651Z,21.19
2019-03-18T14:21:33.890Z,20.65
2019-03-18T14:24:05.033Z,20.28
2019-03-18T14:26:36.418Z,20.01
2019-03-18T14:29:07.629Z,20.26
2019-03-18T14:31:38.830Z,19.89
2019-03-18T14:34:09.933Z,19.46
2019-03-18T14:36:41.270Z,19.36
2019-03-18T14:39:12.525Z,19.34
2019-03-18T14:41:44.046Z,19.20
2019-03-18T14:44:15.383Z,18.82
2019-03-18T14:46:47.264Z,18.40
2019-03-18T14:49:18.660Z,18.30
2019-03-18T14:51:49.861Z,18.13
2019-03-18T14:54:21.057Z,18.04
2019-03-18T14:56:52.399Z,17.73
2019-03-18T14:59:23.638Z,17.10
2019-03-18T15:01:54.947Z,16.98
2019-03-18T15:04:26.198Z,16.71
2019-03-18T15:06:57.390Z,16.24
2019-03-18T15:09:28.623Z,15.91
2019-03-18T15:11:59.924Z,15.63
2019-03-18T15:14:31.292Z,14.90
2019-03-18T15:17:02.669Z,14.13
2019-03-18T15:19:33.940Z,13.64
2019-03-18T15:22:06.045Z,13.19
2019-03-18T15:24:37.810Z,12.81
2019-03-18T15:27:09.083Z,12.59
2019-03-18T15:29:41.495Z,12.36
2019-03-18T15:32:12.700Z,12.14
2019-03-18T15:34:43.980Z,12.04
2019-03-18T15:37:15.289Z,11.84
2019-03-18T15:39:47.743Z,11.72
2019-03-18T15:42:19.105Z,11.54
2019-03-18T15:44:50.494Z,11.37
2019-03-18T15:47:23.907Z,11.22
2019-03-18T15:49:55.139Z,11.10
2019-03-18T15:52:27.526Z,10.94
2019-03-18T15:54:58.803Z,10.81
2019-03-18T15:57:30.201Z,10.68
2019-03-18T16:00:01.382Z,10.53
2019-03-18T16:02:32.698Z,10.45
2019-03-18T16:05:04.823Z,10.33
2019-03-18T16:07:36.057Z,10.20
2019-03-18T16:10:18.794Z,10.09
2019-03-18T16:12:51.225Z,9.98
2019-03-18T16:15:23.126Z,9.91
2019-03-18T16:17:54.397Z,9.84
2019-03-18T16:20:27.075Z,9.75
2019-03-18T16:22:58.216Z,9.66
2019-03-18T16:25:29.501Z,9.61
2019-03-18T16:28:00.749Z,9.53
2019-03-18T16:30:32.216Z,9.47
2019-03-18T16:33:03.421Z,9.37
2019-03-18T16:35:34.722Z,9.31
2019-03-18T16:38:06.071Z,9.26
2019-03-18T16:40:37.433Z,9.21
2019-03-18T16:43:08.768Z,9.13
2019-03-18T16:45:40.049Z,9.09
2019-03-18T16:48:12.578Z,9.01
2019-03-18T16:50:43.899Z,8.96
2019-03-18T16:53:20.791Z,8.94
2019-03-18T16:55:53.951Z,8.90
2019-03-18T16:58:25.268Z,8.85
2019-03-18T17:00:56.944Z,8.81
2019-03-18T17:03:28.201Z,8.74
2019-03-18T17:06:01.126Z,8.65
2019-03-18T17:08:32.421Z,8.61
2019-03-18T17:11:04.833Z,8.55
2019-03-18T17:13:37.425Z,8.49
2019-03-18T17:16:13.049Z,8.46
2019-03-18T17:18:44.046Z,8.41
2019-03-18T17:21:16.505Z,8.36
2019-03-18T17:23:47.724Z,8.31
2019-03-18T17:26:19.009Z,8.25
2019-03-18T17:28:50.243Z,8.21
2019-03-18T17:31:21.463Z,8.16
2019-03-18T17:33:54.210Z,8.15
2019-03-18T17:36:25.561Z,8.17
2019-03-18T17:38:56.967Z,8.21
2019-03-18T17:41:28.307Z,8.20
2019-03-18T17:43:59.626Z,8.24
2019-03-18T17:46:31.662Z,8.24
2019-03-18T17:49:03.025Z,8.24
2019-03-18T17:51:37.135Z,8.25
2019-03-18T17:54:08.322Z,8.26
2019-03-18T17:56:39.617Z,8.29
2019-03-18T17:59:12.888Z,8.28
2019-03-18T18:01:44.577Z,8.24
2019-03-18T18:04:15.950Z,8.18
2019-03-18T18:06:47.272Z,8.18
2019-03-18T18:09:18.560Z,8.20
2019-03-18T18:11:51.463Z,8.15
2019-03-18T18:14:22.705Z,8.17
2019-03-18T18:16:54.023Z,8.14
2019-03-18T18:19:38.440Z,8.14
2019-03-18T18:22:11.479Z,8.06
2019-03-18T18:24:42.816Z,7.96
2019-03-18T18:27:14.918Z,7.93
2019-03-18T18:29:50.731Z,7.79
2019-03-18T18:32:22.571Z,7.75
2019-03-18T18:34:53.920Z,7.77
2019-03-18T18:37:25.442Z,7.70
2019-03-18T18:39:59.485Z,7.73
2019-03-18T18:42:31.394Z,7.72
2019-03-18T18:45:03.661Z,7.71
2019-03-18T18:47:36.614Z,7.63
2019-03-18T18:50:09.953Z,7.52
2019-03-18T18:52:41.214Z,7.41
2019-03-18T18:55:14.643Z,7.30
2019-03-18T18:57:45.883Z,7.28
2019-03-18T19:00:21.417Z,7.33
2019-03-18T19:02:52.739Z,7.26
2019-03-18T19:05:25.594Z,7.22
2019-03-18T19:07:57.697Z,7.19
2019-03-18T19:10:30.631Z,7.15
2019-03-18T19:13:01.959Z,7.13
2019-03-18T19:15:40.544Z,7.09
